In Rescue
 
Open Full Screen Window  High Contrast Mode
Wind Gusting 00 knots
03
November 29, 2022 9:32 AM CST
Weather Information
Wind Direction
  210 °
Wind Speed
  03 kt (3 mph)
Wind Gust
  00 kt (0 mph)
Altimeter
29.67 in
Visibility
10 SM
Temperature
-05° C
23° F
Dewpoint
-09° C
16° F
Humidity
74%
1hr Rain Fall
00.00 in.
24hr Rain Fall
00.00 in.
Sky Condition
Scattered @ 7,000 ft
VFR

METAR KCQM 291532Z AUTO 21003KT 10SM SCT070 M05/M09 A2967 RMK AO2

FAA Disclaimer: The data displayed is for advisory purposes only and is not to be used for flight planning or operations.